createdAt,value
2023-05-19T00:02:06.345Z,15.89
2023-05-19T00:05:11.448Z,15.71
2023-05-19T00:08:19.661Z,15.65
2023-05-19T00:11:27.817Z,15.62
2023-05-19T00:14:32.886Z,15.69
2023-05-19T00:17:39.783Z,15.67
2023-05-19T00:20:46.382Z,15.56
2023-05-19T00:23:55.161Z,15.63
2023-05-19T00:27:01.601Z,15.86
2023-05-19T00:30:05.489Z,16.10
2023-05-19T00:33:11.899Z,16.45
2023-05-19T00:36:15.730Z,16.55
2023-05-19T00:39:19.247Z,16.33
2023-05-19T00:42:23.221Z,16.38
2023-05-19T00:45:26.675Z,16.51
2023-05-19T00:48:35.936Z,16.74
2023-05-19T00:51:39.663Z,16.60
2023-05-19T00:54:44.246Z,16.73
2023-05-19T00:57:49.037Z,16.65
2023-05-19T01:00:52.984Z,16.57
2023-05-19T01:03:59.902Z,16.51
2023-05-19T01:07:06.995Z,16.38
2023-05-19T01:10:11.434Z,16.29
2023-05-19T01:13:15.495Z,16.53
2023-05-19T01:16:42.436Z,16.18
2023-05-19T01:20:19.940Z,15.79
2023-05-19T01:23:26.575Z,15.35
2023-05-19T01:26:57.640Z,15.27
2023-05-19T01:30:24.656Z,15.27
2023-05-19T01:33:54.326Z,15.62
2023-05-19T01:37:01.770Z,15.83
2023-05-19T01:40:06.582Z,15.94
2023-05-19T01:43:13.552Z,16.07
2023-05-19T01:46:20.192Z,16.35
2023-05-19T01:49:49.541Z,16.83
2023-05-19T01:52:56.716Z,17.48
2023-05-19T01:56:00.879Z,18.37
2023-05-19T01:59:25.232Z,18.79
2023-05-19T02:03:09.178Z,18.60
2023-05-19T02:06:38.436Z,18.57
2023-05-19T02:10:25.248Z,17.97
2023-05-19T02:13:53.182Z,18.00
2023-05-19T02:16:59.995Z,18.00
2023-05-19T02:20:05.424Z,17.52
2023-05-19T02:23:09.023Z,17.34
2023-05-19T02:26:12.511Z,17.12
2023-05-19T02:33:07.454Z,16.26
2023-05-19T02:39:36.348Z,15.31
2023-05-19T02:42:51.938Z,14.98
2023-05-19T02:45:55.444Z,14.74
2023-05-19T02:49:04.798Z,14.62
2023-05-19T02:52:12.971Z,14.42
2023-05-19T02:55:29.753Z,14.24
2023-05-19T02:58:34.655Z,14.28
2023-05-19T03:01:38.505Z,14.14
2023-05-19T03:04:47.806Z,14.10
2023-05-19T03:08:00.789Z,14.32
2023-05-19T03:11:05.603Z,14.50
2023-05-19T03:14:11.008Z,14.87
2023-05-19T03:24:13.595Z,15.65
2023-05-19T03:27:17.683Z,15.56
2023-05-19T03:30:21.481Z,15.49
2023-05-19T03:33:50.856Z,15.46
2023-05-19T03:36:54.499Z,15.39
2023-05-19T03:39:58.861Z,15.38
2023-05-19T03:43:02.505Z,15.43
2023-05-19T03:46:07.042Z,15.70
2023-05-19T03:49:25.885Z,15.69
2023-05-19T03:53:04.835Z,15.89
2023-05-19T03:56:15.406Z,15.87
2023-05-19T03:59:18.959Z,16.02
2023-05-19T04:02:33.440Z,16.01
2023-05-19T04:05:45.087Z,16.22
2023-05-19T04:12:32.868Z,16.49
2023-05-19T04:15:36.397Z,16.48
2023-05-19T04:18:40.018Z,16.49
2023-05-19T04:21:43.780Z,16.65
2023-05-19T04:24:48.132Z,16.93
2023-05-19T04:27:53.717Z,16.62
2023-05-19T04:30:59.370Z,16.67
2023-05-19T04:34:03.776Z,16.97
2023-05-19T04:37:11.223Z,16.80
2023-05-19T04:40:26.857Z,16.77
2023-05-19T04:43:36.965Z,16.80
2023-05-19T04:46:41.255Z,16.53
2023-05-19T04:49:47.144Z,16.05
2023-05-19T04:52:51.049Z,15.83
2023-05-19T04:55:58.720Z,15.90
2023-05-19T04:59:02.190Z,15.82
2023-05-19T05:02:05.877Z,15.83
2023-05-19T05:05:16.287Z,15.57
2023-05-19T05:08:23.912Z,15.71
2023-05-19T05:11:27.937Z,15.76
2023-05-19T05:14:33.332Z,15.67
2023-05-19T05:17:39.013Z,15.48
2023-05-19T05:20:44.139Z,15.46
2023-05-19T05:23:48.929Z,15.28
2023-05-19T05:26:53.015Z,15.53
2023-05-19T05:29:59.145Z,15.49
2023-05-19T05:33:04.025Z,15.24
2023-05-19T05:36:10.794Z,15.05
2023-05-19T05:39:17.276Z,14.69
2023-05-19T05:42:28.195Z,14.28
2023-05-19T05:45:36.723Z,14.02
2023-05-19T05:48:42.992Z,13.94
2023-05-19T05:55:08.743Z,13.93
2023-05-19T05:58:12.463Z,14.22
2023-05-19T06:01:17.734Z,14.24
2023-05-19T06:04:28.103Z,14.35
2023-05-19T06:07:31.869Z,14.36
2023-05-19T06:10:37.594Z,14.30
2023-05-19T06:13:44.727Z,14.52
2023-05-19T06:16:57.773Z,14.46
2023-05-19T06:20:01.364Z,14.79
2023-05-19T06:23:05.832Z,14.30
2023-05-19T06:26:21.043Z,13.95
2023-05-19T06:29:26.864Z,13.81
2023-05-19T06:32:34.762Z,13.94
2023-05-19T06:35:38.269Z,13.84
2023-05-19T06:38:42.042Z,13.98
2023-05-19T06:41:50.281Z,13.93
2023-05-19T06:45:13.954Z,13.65
2023-05-19T06:48:17.592Z,13.71
2023-05-19T06:51:23.375Z,13.78
2023-05-19T06:54:31.519Z,14.11
2023-05-19T06:57:35.283Z,13.94
2023-05-19T07:00:39.297Z,13.77
2023-05-19T07:03:45.518Z,13.66
2023-05-19T07:06:51.108Z,13.76
2023-05-19T07:09:56.056Z,13.78
2023-05-19T07:12:59.953Z,13.78
2023-05-19T07:16:31.904Z,13.69
2023-05-19T07:19:36.095Z,13.62
2023-05-19T07:22:40.892Z,13.60
2023-05-19T07:25:44.686Z,13.32
2023-05-19T07:28:48.080Z,13.12
2023-05-19T07:31:55.007Z,12.91
2023-05-19T07:34:58.253Z,12.61
2023-05-19T07:38:01.827Z,12.43
2023-05-19T07:41:05.505Z,12.36
2023-05-19T07:44:09.440Z,12.43
2023-05-19T07:47:22.681Z,12.32
2023-05-19T07:50:26.657Z,12.33
2023-05-19T07:53:30.331Z,12.42
2023-05-19T07:56:49.283Z,12.50
2023-05-19T07:59:55.803Z,12.60
2023-05-19T08:06:34.755Z,12.63
2023-05-19T08:09:38.365Z,12.68
2023-05-19T08:12:41.973Z,12.63
2023-05-19T08:15:47.332Z,12.61
2023-05-19T08:18:54.139Z,12.60
2023-05-19T08:21:58.696Z,12.60
2023-05-19T08:25:09.880Z,12.53
2023-05-19T08:31:38.681Z,12.26
2023-05-19T08:34:43.186Z,12.24
2023-05-19T08:37:47.185Z,12.17
2023-05-19T08:40:51.133Z,12.10
2023-05-19T08:43:55.552Z,11.97
2023-05-19T08:47:03.851Z,11.70
2023-05-19T08:50:10.785Z,11.47
2023-05-19T08:53:33.662Z,11.36
2023-05-19T08:56:39.914Z,11.18
2023-05-19T08:59:44.897Z,11.21
2023-05-19T09:03:00.922Z,11.14
2023-05-19T09:06:10.375Z,11.21
2023-05-19T09:09:14.161Z,11.18
2023-05-19T09:12:22.196Z,10.97
2023-05-19T09:15:51.552Z,10.90
2023-05-19T09:19:01.952Z,10.84
2023-05-19T09:22:38.198Z,10.87
2023-05-19T09:25:54.417Z,10.98
2023-05-19T09:29:51.287Z,11.14
2023-05-19T09:33:00.330Z,11.00
2023-05-19T09:36:12.546Z,10.93
2023-05-19T09:39:36.875Z,10.97
2023-05-19T09:42:45.021Z,10.90
2023-05-19T09:50:02.307Z,10.71
2023-05-19T09:53:32.219Z,10.53
2023-05-19T09:56:47.298Z,10.38
2023-05-19T09:59:50.996Z,10.32
2023-05-19T10:02:55.478Z,10.28
2023-05-19T10:06:10.187Z,10.25
2023-05-19T10:09:14.489Z,10.21
2023-05-19T10:12:19.081Z,10.16
2023-05-19T10:15:23.279Z,10.09
2023-05-19T10:18:28.096Z,10.02
2023-05-19T10:21:35.108Z,9.87
2023-05-19T10:24:38.750Z,9.80
2023-05-19T10:27:59.203Z,9.66
2023-05-19T10:31:07.764Z,9.69
2023-05-19T10:34:56.005Z,9.74
2023-05-19T10:38:29.062Z,9.77
2023-05-19T10:41:39.311Z,9.75
2023-05-19T10:45:07.744Z,9.74
2023-05-19T10:48:18.651Z,9.61
2023-05-19T10:51:22.226Z,9.57
2023-05-19T10:54:47.794Z,9.57
2023-05-19T10:58:01.228Z,9.47
2023-05-19T11:01:12.029Z,9.44
2023-05-19T11:04:16.642Z,9.44
2023-05-19T11:07:35.474Z,9.50
2023-05-19T11:10:40.420Z,9.50
2023-05-19T11:13:55.749Z,9.50
2023-05-19T11:17:01.062Z,9.54
2023-05-19T11:26:48.479Z,9.56
2023-05-19T11:30:20.791Z,9.53
2023-05-19T11:33:28.416Z,9.60
2023-05-19T11:39:54.024Z,9.74
2023-05-19T11:42:58.066Z,9.77
2023-05-19T11:46:02.559Z,9.81
2023-05-19T11:49:07.214Z,9.77
2023-05-19T11:52:10.729Z,9.80
2023-05-19T11:55:18.137Z,9.85
2023-05-19T11:58:28.578Z,9.88
2023-05-19T12:01:47.226Z,9.87
2023-05-19T12:04:50.842Z,9.87
2023-05-19T12:07:54.886Z,9.87
2023-05-19T12:11:01.137Z,9.90
2023-05-19T12:14:04.664Z,9.94
2023-05-19T12:17:20.528Z,9.94
2023-05-19T12:20:25.071Z,9.87
2023-05-19T12:23:31.387Z,9.88
2023-05-19T12:26:38.075Z,9.80
2023-05-19T12:29:42.403Z,9.78
2023-05-19T12:32:47.498Z,9.84
2023-05-19T12:35:55.515Z,9.84
2023-05-19T12:38:59.165Z,9.87
2023-05-19T12:42:04.494Z,9.87
2023-05-19T12:45:08.715Z,9.93
2023-05-19T12:48:13.462Z,9.99
2023-05-19T12:51:22.534Z,10.09
2023-05-19T12:54:26.915Z,10.08
2023-05-19T12:57:33.250Z,10.15
2023-05-19T13:00:45.959Z,10.26
2023-05-19T13:03:49.779Z,10.32
2023-05-19T13:06:54.511Z,10.38
2023-05-19T13:09:57.940Z,10.47
2023-05-19T13:13:01.886Z,10.53
2023-05-19T13:16:05.537Z,10.59
2023-05-19T13:19:21.207Z,10.64
2023-05-19T13:22:28.164Z,10.63
2023-05-19T13:25:31.920Z,10.75
2023-05-19T13:28:35.827Z,10.80
2023-05-19T13:31:43.351Z,10.83
2023-05-19T13:34:46.908Z,10.80
2023-05-19T13:37:50.667Z,10.84
2023-05-19T13:40:54.117Z,10.88
2023-05-19T13:44:07.579Z,10.91
2023-05-19T13:53:46.890Z,10.85
2023-05-19T13:56:50.426Z,10.78
2023-05-19T14:00:03.245Z,10.75
2023-05-19T14:03:20.322Z,10.71
2023-05-19T14:06:23.817Z,10.67
2023-05-19T14:09:28.112Z,10.66
2023-05-19T14:12:45.003Z,10.57
2023-05-19T14:15:56.867Z,10.57
2023-05-19T14:19:00.407Z,10.53
2023-05-19T14:22:04.102Z,10.61
2023-05-19T14:25:08.472Z,10.60
2023-05-19T14:28:11.921Z,10.71
2023-05-19T14:31:15.951Z,10.77
2023-05-19T14:34:21.676Z,10.80
2023-05-19T14:37:27.315Z,10.78
2023-05-19T14:40:30.897Z,10.70
2023-05-19T14:43:34.610Z,10.63
2023-05-19T14:46:38.094Z,10.64
2023-05-19T14:49:41.662Z,10.68
2023-05-19T14:52:45.261Z,10.74
2023-05-19T14:55:51.715Z,10.73
2023-05-19T14:58:55.252Z,10.74
2023-05-19T15:01:58.918Z,10.74
2023-05-19T15:05:02.303Z,10.73
2023-05-19T15:08:06.460Z,10.77
2023-05-19T15:11:10.059Z,10.75
2023-05-19T15:14:13.581Z,10.67
2023-05-19T15:17:17.056Z,10.67
2023-05-19T15:20:20.646Z,10.59
2023-05-19T15:23:24.092Z,10.64
2023-05-19T15:26:29.797Z,10.63
2023-05-19T15:29:33.291Z,10.66
2023-05-19T15:32:36.859Z,10.67
2023-05-19T15:35:40.687Z,10.64
2023-05-19T15:38:44.371Z,10.64
2023-05-19T15:41:47.856Z,10.67
2023-05-19T15:44:51.536Z,10.57
2023-05-19T15:47:55.097Z,10.56
2023-05-19T15:50:59.005Z,10.56
2023-05-19T15:54:02.443Z,10.53
2023-05-19T15:57:06.146Z,10.60
2023-05-19T16:00:10.235Z,10.59
2023-05-19T16:03:13.766Z,10.67
2023-05-19T16:06:18.524Z,10.75
2023-05-19T16:09:21.982Z,10.78
2023-05-19T16:12:25.420Z,10.78
2023-05-19T16:15:28.832Z,10.80
2023-05-19T16:18:32.306Z,10.74
2023-05-19T16:21:35.831Z,10.73
2023-05-19T16:24:39.237Z,10.81
2023-05-19T16:27:42.670Z,10.81
2023-05-19T16:30:46.761Z,10.84
2023-05-19T16:33:50.402Z,10.85
2023-05-19T16:36:53.795Z,10.75
2023-05-19T16:39:57.217Z,10.70
2023-05-19T16:43:00.673Z,10.73
2023-05-19T16:46:05.476Z,10.74
2023-05-19T16:49:08.996Z,10.74
2023-05-19T16:52:12.469Z,10.74
2023-05-19T16:55:20.325Z,10.81
2023-05-19T16:58:23.819Z,10.87
2023-05-19T17:01:27.250Z,10.81
2023-05-19T17:04:30.968Z,10.84
2023-05-19T17:07:34.573Z,10.85
2023-05-19T17:10:39.395Z,10.85
2023-05-19T17:13:44.618Z,10.94
2023-05-19T17:16:48.240Z,10.93
2023-05-19T17:19:51.884Z,10.98
2023-05-19T17:22:55.347Z,11.01
2023-05-19T17:25:58.994Z,11.08
2023-05-19T17:29:02.453Z,11.04
2023-05-19T17:32:06.625Z,11.01
2023-05-19T17:35:10.476Z,10.75
2023-05-19T17:38:13.991Z,10.53
2023-05-19T17:41:17.954Z,10.42
2023-05-19T17:44:21.274Z,10.38
2023-05-19T17:47:24.801Z,10.38
2023-05-19T17:50:28.369Z,10.45
2023-05-19T17:53:32.023Z,10.43
2023-05-19T17:56:40.601Z,10.45
2023-05-19T17:59:44.124Z,10.47
2023-05-19T18:02:47.875Z,10.46
2023-05-19T18:05:52.205Z,10.39
2023-05-19T18:08:58.755Z,10.32
2023-05-19T18:12:03.122Z,10.26
2023-05-19T18:15:09.293Z,10.23
2023-05-19T18:18:13.353Z,10.11
2023-05-19T18:21:18.570Z,10.13
2023-05-19T18:24:22.042Z,10.12
2023-05-19T18:27:25.391Z,10.09
2023-05-19T18:30:28.842Z,10.11
2023-05-19T18:33:33.054Z,10.09
2023-05-19T18:36:38.219Z,10.11
2023-05-19T18:39:41.850Z,10.12
2023-05-19T18:42:45.277Z,10.13
2023-05-19T18:45:48.848Z,10.18
2023-05-19T18:48:52.361Z,10.22
2023-05-19T18:51:55.996Z,10.26
2023-05-19T18:55:01.497Z,10.30
2023-05-19T18:58:05.087Z,10.36
2023-05-19T19:01:08.957Z,10.42
2023-05-19T19:04:12.956Z,10.45
2023-05-19T19:07:16.375Z,10.42
2023-05-19T19:10:20.047Z,10.47
2023-05-19T19:13:23.508Z,10.47
2023-05-19T19:16:26.938Z,10.46
2023-05-19T19:19:31.299Z,10.45
2023-05-19T19:22:34.752Z,10.46
2023-05-19T19:25:38.288Z,10.45
2023-05-19T19:28:41.862Z,10.43
2023-05-19T19:31:45.274Z,10.40
2023-05-19T19:34:48.828Z,10.45
2023-05-19T19:37:52.594Z,10.35
2023-05-19T19:40:56.043Z,10.25
2023-05-19T19:43:59.490Z,10.22
2023-05-19T19:47:06.794Z,10.16
2023-05-19T19:50:11.485Z,10.12
2023-05-19T19:53:14.946Z,10.02
2023-05-19T19:56:18.471Z,10.01
2023-05-19T19:59:21.995Z,10.01
2023-05-19T20:02:25.562Z,10.04
2023-05-19T20:05:29.116Z,10.02
2023-05-19T20:08:32.510Z,10.05
2023-05-19T20:11:35.967Z,10.09
2023-05-19T20:14:39.501Z,10.09
2023-05-19T20:17:42.961Z,10.13
2023-05-19T20:20:46.494Z,10.11
2023-05-19T20:23:51.798Z,10.13
2023-05-19T20:26:55.154Z,10.13
2023-05-19T20:29:58.528Z,10.08
2023-05-19T20:33:01.999Z,10.06
2023-05-19T20:36:07.489Z,10.08
2023-05-19T20:39:10.972Z,10.11
2023-05-19T20:42:14.474Z,10.12
2023-05-19T20:45:17.979Z,10.09
2023-05-19T20:48:21.717Z,10.06
2023-05-19T20:51:26.001Z,10.05
2023-05-19T20:54:29.739Z,10.02
2023-05-19T20:57:33.152Z,10.05
2023-05-19T21:00:37.222Z,10.06
2023-05-19T21:03:40.873Z,10.04
2023-05-19T21:06:44.395Z,10.09
2023-05-19T21:09:51.046Z,10.09
2023-05-19T21:12:54.602Z,10.13
2023-05-19T21:15:58.287Z,10.18
2023-05-19T21:19:02.686Z,10.23
2023-05-19T21:22:06.653Z,10.33
2023-05-19T21:25:10.198Z,10.42
2023-05-19T21:28:13.792Z,10.60
2023-05-19T21:31:17.374Z,10.71
2023-05-19T21:34:20.772Z,10.83
2023-05-19T21:37:24.364Z,10.94
2023-05-19T21:40:27.961Z,11.05
2023-05-19T21:43:31.596Z,11.25
2023-05-19T21:46:35.093Z,11.38
2023-05-19T21:49:40.708Z,11.50
2023-05-19T21:52:44.259Z,11.67
2023-05-19T21:55:47.756Z,11.81
2023-05-19T21:58:51.132Z,12.02
2023-05-19T22:01:54.658Z,12.25
2023-05-19T22:04:58.056Z,12.35
2023-05-19T22:08:01.686Z,12.45
2023-05-19T22:11:05.127Z,12.49
2023-05-19T22:14:08.525Z,12.55
2023-05-19T22:17:11.932Z,12.91
2023-05-19T22:20:15.356Z,14.02
2023-05-19T22:23:18.703Z,14.50
2023-05-19T22:26:22.807Z,14.45
2023-05-19T22:29:26.687Z,15.19
2023-05-19T22:32:31.174Z,16.35
2023-05-19T22:35:34.846Z,17.18
2023-05-19T22:38:38.291Z,18.62
2023-05-19T22:41:41.880Z,19.79
2023-05-19T22:44:46.677Z,20.86
2023-05-19T22:47:51.900Z,21.99
2023-05-19T22:50:55.433Z,22.66
2023-05-19T22:53:59.212Z,22.20
2023-05-19T22:57:02.795Z,22.85
2023-05-19T23:00:06.788Z,22.47
2023-05-19T23:03:10.225Z,22.77
2023-05-19T23:06:13.741Z,22.34
2023-05-19T23:09:18.586Z,22.03
2023-05-19T23:12:22.438Z,21.93
2023-05-19T23:15:25.889Z,22.24
2023-05-19T23:18:29.283Z,22.47
2023-05-19T23:21:33.279Z,23.00
2023-05-19T23:24:36.783Z,23.48
2023-05-19T23:27:40.395Z,23.99
2023-05-19T23:30:43.752Z,24.47
2023-05-19T23:33:47.224Z,23.95
2023-05-19T23:36:53.284Z,24.05
2023-05-19T23:39:56.748Z,23.90
2023-05-19T23:43:00.201Z,24.69
2023-05-19T23:46:03.648Z,24.43
2023-05-19T23:49:07.182Z,25.06
2023-05-19T23:52:10.517Z,25.44
2023-05-19T23:55:14.466Z,26.48
2023-05-19T23:58:18.410Z,26.99
